Terminal Aerodrome Forecast
Issued by NWS

Home | Current Version | Previous Version | Text Only | Print | Product List | Glossary On
Versions: 1 2 3 4 5 6 7 8 9 10 11 12 13 14
000
FTUS43 KSGF 261100
TAFJLN
TAF
KJLN 261120Z 2612/2712 20012KT P6SM SCT120 WS020/23040KT
     FM261400 21015G23KT P6SM FEW050 SCT250
     FM270100 19012KT P6SM SCT050 SCT120 WS020/25040KT=

USA.gov is the U.S. government's official web portal to all federal, state and local government web resources and services.